createdAt,value
2019-05-28T00:00:30.451Z,71.70
2019-05-28T00:01:30.439Z,71.60
2019-05-28T00:02:30.429Z,72.62
2019-05-28T00:03:30.418Z,73.06
2019-05-28T00:04:30.414Z,73.02
2019-05-28T00:05:30.409Z,73.06
2019-05-28T00:06:30.385Z,73.36
2019-05-28T00:07:30.374Z,73.19
2019-05-28T00:08:30.364Z,73.19
2019-05-28T00:09:30.355Z,73.19
2019-05-28T00:10:30.340Z,73.10
2019-05-28T00:11:30.385Z,74.01
2019-05-28T00:12:30.319Z,73.71
2019-05-28T00:13:30.309Z,72.99
2019-05-28T00:14:30.296Z,73.10
2019-05-28T00:15:30.285Z,74.11
2019-05-28T00:16:30.275Z,74.01
2019-05-28T00:17:30.274Z,74.01
2019-05-28T00:18:30.253Z,73.91
2019-05-28T00:19:30.243Z,74.01
2019-05-28T00:20:30.231Z,74.25
2019-05-28T00:21:30.220Z,74.55
2019-05-28T00:22:30.210Z,74.45
2019-05-28T00:23:30.210Z,74.45
2019-05-28T00:24:30.188Z,74.66
2019-05-28T00:25:30.178Z,75.07
2019-05-28T00:26:30.166Z,74.55
2019-05-28T00:27:30.159Z,74.55
2019-05-28T00:28:30.146Z,74.66
2019-05-28T00:29:30.146Z,75.10
2019-05-28T00:30:30.129Z,75.00
2019-05-28T00:31:30.113Z,75.00
2019-05-28T00:32:30.103Z,75.41
2019-05-28T00:33:30.094Z,75.20
2019-05-28T00:34:30.082Z,75.41
2019-05-28T00:35:30.081Z,75.71
2019-05-28T00:36:30.060Z,75.10
2019-05-28T00:37:30.049Z,74.90
2019-05-28T00:38:30.038Z,75.07
2019-05-28T00:39:30.028Z,74.96
2019-05-28T00:40:30.019Z,74.86
2019-05-28T00:41:30.016Z,75.82
2019-05-28T00:42:29.995Z,75.61
2019-05-28T00:43:29.984Z,75.61
2019-05-28T00:44:29.977Z,75.51
2019-05-28T00:45:29.963Z,75.20
2019-05-28T00:46:29.951Z,76.12
2019-05-28T00:47:29.990Z,75.75
2019-05-28T00:48:29.930Z,75.85
2019-05-28T00:49:29.919Z,76.36
2019-05-28T00:50:29.908Z,76.77
2019-05-28T00:51:29.907Z,76.36
2019-05-28T00:52:29.888Z,76.19
2019-05-28T00:53:29.889Z,76.87
2019-05-28T00:54:29.868Z,76.90
2019-05-28T00:55:29.854Z,77.42
2019-05-28T00:56:29.844Z,77.42
2019-05-28T00:57:29.833Z,77.62
2019-05-28T00:58:29.825Z,77.72
2019-05-28T00:59:29.821Z,77.83
2019-05-28T01:00:36.786Z,77.52
2019-05-28T01:01:30.794Z,76.81
2019-05-28T01:02:29.784Z,76.70
2019-05-28T01:03:29.777Z,77.01
2019-05-28T01:04:29.778Z,76.77
2019-05-28T01:05:29.755Z,77.62
2019-05-28T01:06:29.738Z,78.72
2019-05-28T01:07:29.729Z,79.64
2019-05-28T01:08:29.716Z,80.29
2019-05-28T01:09:29.715Z,80.74
2019-05-28T01:10:29.691Z,81.45
2019-05-28T01:11:29.717Z,81.35
2019-05-28T01:12:29.668Z,81.82
2019-05-28T01:13:29.693Z,81.21
2019-05-28T01:14:29.647Z,81.01
2019-05-28T01:15:29.683Z,80.76
2019-05-28T01:16:29.637Z,80.25
2019-05-28T01:17:29.625Z,79.94
2019-05-28T01:18:29.602Z,79.50
2019-05-28T01:19:29.593Z,79.19
2019-05-28T01:20:29.583Z,79.19
2019-05-28T01:21:29.568Z,78.75
2019-05-28T01:22:29.558Z,78.54
2019-05-28T01:23:29.563Z,78.03
2019-05-28T01:24:29.537Z,78.13
2019-05-28T01:25:29.532Z,77.62
2019-05-28T01:26:29.513Z,77.59
2019-05-28T01:27:29.504Z,77.59
2019-05-28T01:28:29.517Z,76.77
2019-05-28T01:29:29.492Z,77.08
2019-05-28T01:30:29.475Z,76.97
2019-05-28T01:31:29.461Z,76.46
2019-05-28T01:32:29.449Z,76.73
2019-05-28T01:33:29.448Z,76.43
2019-05-28T01:34:29.436Z,77.04
2019-05-28T01:35:29.430Z,76.53
2019-05-28T01:36:29.406Z,76.32
2019-05-28T01:37:29.401Z,75.92
2019-05-28T01:38:29.386Z,75.98
2019-05-28T01:39:29.374Z,75.98
2019-05-28T01:40:29.363Z,76.12
2019-05-28T01:41:29.366Z,75.82
2019-05-28T01:42:29.341Z,75.61
2019-05-28T01:43:29.334Z,75.82
2019-05-28T01:44:29.319Z,75.71
2019-05-28T01:45:29.315Z,75.57
2019-05-28T01:46:29.300Z,76.12
2019-05-28T01:47:29.310Z,75.71
2019-05-28T01:48:29.277Z,75.71
2019-05-28T01:49:29.266Z,76.77
2019-05-28T01:50:29.256Z,76.97
2019-05-28T01:51:29.254Z,76.46
2019-05-28T01:52:29.256Z,76.53
2019-05-28T01:53:29.253Z,76.26
2019-05-28T01:54:29.213Z,77.18
2019-05-28T01:55:29.207Z,76.97
2019-05-28T01:56:29.192Z,77.04
2019-05-28T01:57:29.181Z,76.73
2019-05-28T01:58:29.169Z,76.43
2019-05-28T01:59:29.174Z,76.73
2019-05-28T02:00:29.149Z,76.02
2019-05-28T02:01:29.152Z,75.82
2019-05-28T02:02:29.127Z,75.82
2019-05-28T02:03:29.117Z,75.68
2019-05-28T02:04:29.110Z,75.92
2019-05-28T02:05:29.163Z,75.48
2019-05-28T02:06:29.087Z,75.82
2019-05-28T02:07:29.075Z,75.71
2019-05-28T02:08:29.062Z,75.82
2019-05-28T02:09:29.051Z,75.82
2019-05-28T02:10:29.041Z,76.32
2019-05-28T02:11:29.045Z,76.73
2019-05-28T02:12:29.025Z,76.22
2019-05-28T02:13:29.009Z,76.93
2019-05-28T02:14:28.997Z,76.63
2019-05-28T02:15:28.987Z,76.32
2019-05-28T02:16:28.976Z,76.32
2019-05-28T02:17:28.977Z,76.12
2019-05-28T02:18:28.953Z,76.02
2019-05-28T02:19:28.948Z,75.92
2019-05-28T02:20:28.935Z,76.12
2019-05-28T02:21:28.927Z,76.73
2019-05-28T02:22:28.911Z,76.02
2019-05-28T02:23:28.911Z,75.98
2019-05-28T02:24:28.890Z,75.98
2019-05-28T02:25:28.879Z,75.82
2019-05-28T02:26:28.869Z,75.78
2019-05-28T02:27:28.858Z,75.82
2019-05-28T02:28:28.847Z,75.68
2019-05-28T02:29:28.847Z,76.02
2019-05-28T02:30:28.825Z,76.32
2019-05-28T02:31:28.814Z,76.53
2019-05-28T02:32:28.804Z,76.32
2019-05-28T02:33:28.848Z,76.63
2019-05-28T02:34:28.785Z,76.77
2019-05-28T02:35:28.820Z,77.89
2019-05-28T02:36:28.760Z,78.09
2019-05-28T02:37:28.750Z,77.69
2019-05-28T02:38:28.738Z,78.00
2019-05-28T02:39:28.728Z,77.59
2019-05-28T02:40:28.717Z,77.69
2019-05-28T02:41:28.715Z,78.00
2019-05-28T02:42:28.705Z,78.09
2019-05-28T02:43:28.685Z,77.89
2019-05-28T02:44:28.678Z,78.09
2019-05-28T02:45:28.664Z,77.69
2019-05-28T02:46:28.652Z,77.89
2019-05-28T02:47:28.655Z,76.63
2019-05-28T02:48:28.633Z,76.73
2019-05-28T02:49:28.621Z,77.25
2019-05-28T02:50:28.610Z,76.63
2019-05-28T02:51:28.598Z,76.43
2019-05-28T02:52:31.834Z,76.12
2019-05-28T02:53:28.587Z,77.04
2019-05-28T02:54:28.568Z,77.18
2019-05-28T02:55:28.556Z,76.97
2019-05-28T02:56:28.549Z,77.25
2019-05-28T02:57:28.534Z,76.93
2019-05-28T02:58:28.522Z,77.25
2019-05-28T02:59:28.544Z,76.84
2019-05-28T03:00:28.501Z,76.32
2019-05-28T03:01:42.940Z,76.43
2019-05-28T03:02:29.485Z,76.93
2019-05-28T03:03:28.468Z,76.63
2019-05-28T03:04:28.459Z,77.04
2019-05-28T03:05:28.459Z,76.93
2019-05-28T03:06:28.448Z,76.84
2019-05-28T03:07:28.425Z,76.29
2019-05-28T03:08:28.414Z,76.63
2019-05-28T03:09:28.405Z,76.90
2019-05-28T03:10:28.392Z,77.14
2019-05-28T03:11:28.395Z,77.34
2019-05-28T03:12:28.375Z,76.73
2019-05-28T03:13:28.360Z,77.65
2019-05-28T03:14:28.352Z,76.80
2019-05-28T03:15:28.340Z,77.00
2019-05-28T03:16:28.327Z,76.70
2019-05-28T03:17:28.344Z,77.00
2019-05-28T03:18:28.317Z,77.51
2019-05-28T03:19:28.295Z,77.51
2019-05-28T03:20:28.283Z,77.62
2019-05-28T03:21:28.275Z,76.39
2019-05-28T03:22:28.262Z,76.39
2019-05-28T03:23:28.264Z,77.21
2019-05-28T03:24:28.239Z,77.41
2019-05-28T03:25:28.229Z,76.80
2019-05-28T03:26:28.218Z,77.21
2019-05-28T03:27:28.206Z,77.00
2019-05-28T03:28:28.195Z,78.02
2019-05-28T03:29:28.195Z,77.72
2019-05-28T03:30:28.174Z,77.62
2019-05-28T03:31:28.164Z,77.51
2019-05-28T03:32:28.157Z,77.41
2019-05-28T03:33:28.143Z,77.41
2019-05-28T03:34:28.129Z,77.31
2019-05-28T03:35:28.132Z,77.75
2019-05-28T03:36:28.111Z,77.72
2019-05-28T03:37:28.098Z,77.72
2019-05-28T03:38:28.086Z,77.55
2019-05-28T03:39:28.076Z,77.65
2019-05-28T03:40:28.066Z,77.55
2019-05-28T03:41:28.076Z,77.75
2019-05-28T03:42:28.043Z,77.96
2019-05-28T03:43:28.031Z,78.27
2019-05-28T03:44:28.021Z,78.27
2019-05-28T03:45:28.010Z,78.67
2019-05-28T03:46:28.018Z,78.57
2019-05-28T03:47:27.998Z,78.67
2019-05-28T03:48:27.976Z,78.67
2019-05-28T03:49:27.969Z,78.53
2019-05-28T03:50:27.954Z,78.27
2019-05-28T03:51:27.945Z,77.82
2019-05-28T03:52:27.934Z,77.82
2019-05-28T03:53:27.935Z,77.82
2019-05-28T03:54:27.911Z,77.92
2019-05-28T03:55:27.900Z,77.82
2019-05-28T03:56:27.889Z,77.62
2019-05-28T03:57:27.878Z,77.31
2019-05-28T03:58:27.866Z,77.82
2019-05-28T03:59:27.872Z,77.31
2019-05-28T04:00:27.847Z,77.31
2019-05-28T04:01:27.837Z,76.80
2019-05-28T04:02:27.823Z,76.80
2019-05-28T04:03:27.812Z,75.98
2019-05-28T04:04:27.803Z,75.78
2019-05-28T04:05:27.802Z,76.29
2019-05-28T04:06:27.782Z,75.68
2019-05-28T04:07:27.767Z,75.57
2019-05-28T04:08:27.758Z,75.88
2019-05-28T04:09:27.746Z,75.98
2019-05-28T04:10:27.737Z,75.98
2019-05-28T04:11:41.959Z,75.88
2019-05-28T04:12:28.712Z,75.78
2019-05-28T04:13:27.701Z,75.68
2019-05-28T04:14:27.697Z,76.32
2019-05-28T04:15:27.679Z,76.12
2019-05-28T04:16:27.668Z,77.04
2019-05-28T04:17:27.680Z,76.22
2019-05-28T04:18:27.656Z,76.93
2019-05-28T04:19:27.636Z,76.43
2019-05-28T04:20:27.624Z,77.14
2019-05-28T04:21:27.614Z,77.04
2019-05-28T04:22:27.608Z,76.32
2019-05-28T04:23:27.606Z,76.67
2019-05-28T04:24:27.579Z,76.77
2019-05-28T04:25:27.575Z,77.28
2019-05-28T04:26:27.559Z,76.87
2019-05-28T04:27:27.550Z,77.08
2019-05-28T04:28:27.536Z,77.59
2019-05-28T04:29:27.536Z,77.48
2019-05-28T04:30:27.519Z,77.69
2019-05-28T04:31:27.502Z,77.65
2019-05-28T04:32:40.084Z,76.73
2019-05-28T04:33:28.485Z,77.25
2019-05-28T04:34:27.474Z,77.45
2019-05-28T04:35:27.471Z,78.06
2019-05-28T04:36:27.447Z,78.09
2019-05-28T04:37:27.437Z,77.79
2019-05-28T04:38:27.427Z,78.30
2019-05-28T04:39:27.420Z,78.71
2019-05-28T04:40:27.408Z,79.02
2019-05-28T04:41:27.411Z,78.71
2019-05-28T04:42:27.382Z,78.81
2019-05-28T04:43:27.371Z,78.81
2019-05-28T04:44:27.359Z,78.77
2019-05-28T04:45:27.349Z,78.88
2019-05-28T04:46:27.338Z,79.59
2019-05-28T04:47:27.337Z,79.69
2019-05-28T04:48:27.316Z,79.39
2019-05-28T04:49:27.305Z,79.18
2019-05-28T04:50:27.294Z,79.59
2019-05-28T04:51:27.283Z,79.49
2019-05-28T04:52:30.543Z,79.69
2019-05-28T04:53:27.271Z,79.90
2019-05-28T04:54:27.250Z,79.35
2019-05-28T04:55:27.241Z,79.28
2019-05-28T04:56:27.228Z,79.69
2019-05-28T04:57:27.216Z,80.00
2019-05-28T04:58:27.205Z,79.39
2019-05-28T04:59:27.211Z,79.08
2019-05-28T05:00:27.184Z,79.90
2019-05-28T05:01:27.173Z,79.59
2019-05-28T05:02:27.161Z,79.86
2019-05-28T05:03:27.157Z,79.69
2019-05-28T05:04:27.152Z,79.45
2019-05-28T05:05:27.139Z,79.75
2019-05-28T05:06:27.119Z,79.39
2019-05-28T05:07:27.107Z,79.86
2019-05-28T05:08:27.099Z,79.90
2019-05-28T05:09:27.084Z,80.88
2019-05-28T05:10:27.073Z,82.00
2019-05-28T05:11:27.073Z,81.29
2019-05-28T05:12:27.051Z,81.49
2019-05-28T05:13:27.048Z,81.59
2019-05-28T05:14:27.044Z,82.31
2019-05-28T05:15:27.018Z,83.33
2019-05-28T05:16:27.007Z,83.47
2019-05-28T05:17:27.012Z,83.67
2019-05-28T05:18:26.985Z,84.28
2019-05-28T05:19:26.973Z,85.21
2019-05-28T05:20:26.964Z,85.55
2019-05-28T05:21:26.952Z,86.16
2019-05-28T05:22:26.941Z,85.45
2019-05-28T05:23:26.941Z,86.16
2019-05-28T05:24:26.919Z,86.47
2019-05-28T05:25:26.911Z,87.23
2019-05-28T05:26:26.900Z,86.30
2019-05-28T05:27:26.887Z,86.71
2019-05-28T05:28:26.878Z,87.12
2019-05-28T05:29:26.878Z,87.53
2019-05-28T05:30:26.854Z,88.14
2019-05-28T05:31:26.847Z,88.55
2019-05-28T05:32:27.881Z,88.90
2019-05-28T05:33:26.821Z,88.79
2019-05-28T05:34:26.825Z,89.11
2019-05-28T05:35:26.826Z,89.35
2019-05-28T05:36:26.789Z,89.65
2019-05-28T05:37:26.780Z,89.86
2019-05-28T05:38:26.768Z,90.43
2019-05-28T05:39:26.758Z,90.94
2019-05-28T05:40:26.746Z,89.31
2019-05-28T05:41:26.746Z,88.18
2019-05-28T05:42:26.725Z,88.79
2019-05-28T05:43:26.713Z,88.39
2019-05-28T05:44:26.703Z,88.59
2019-05-28T05:45:26.691Z,88.85
2019-05-28T05:46:26.681Z,88.76
2019-05-28T05:47:26.686Z,88.96
2019-05-28T05:48:26.662Z,88.85
2019-05-28T05:49:26.650Z,89.26
2019-05-28T05:50:26.636Z,88.85
2019-05-28T05:51:26.635Z,88.55
2019-05-28T05:52:26.617Z,87.49
2019-05-28T05:53:26.639Z,87.38
2019-05-28T05:54:26.595Z,86.82
2019-05-28T05:55:26.603Z,85.65
2019-05-28T05:56:26.570Z,86.41
2019-05-28T05:57:26.559Z,87.49
2019-05-28T05:58:26.550Z,87.59
2019-05-28T05:59:26.559Z,85.75
2019-05-28T06:00:26.568Z,86.26
2019-05-28T06:01:26.516Z,86.47
2019-05-28T06:02:26.505Z,86.63
2019-05-28T06:03:39.844Z,86.57
2019-05-28T06:04:27.496Z,86.53
2019-05-28T06:05:26.473Z,87.04
2019-05-28T06:06:26.463Z,86.43
2019-05-28T06:07:26.486Z,86.33
2019-05-28T06:08:26.445Z,85.65
2019-05-28T06:09:26.433Z,85.55
2019-05-28T06:10:26.428Z,85.65
2019-05-28T06:11:26.408Z,85.45
2019-05-28T06:12:26.397Z,85.55
2019-05-28T06:13:26.387Z,86.73
2019-05-28T06:14:26.376Z,84.80
2019-05-28T06:15:26.364Z,84.94
2019-05-28T06:16:26.378Z,85.86
2019-05-28T06:17:26.344Z,85.51
2019-05-28T06:18:26.332Z,85.61
2019-05-28T06:19:26.322Z,85.57
2019-05-28T06:20:26.312Z,84.75
2019-05-28T06:21:26.306Z,84.90
2019-05-28T06:22:26.312Z,85.00
2019-05-28T06:23:26.286Z,84.90
2019-05-28T06:24:26.269Z,85.51
2019-05-28T06:25:26.267Z,86.12
2019-05-28T06:26:26.248Z,86.57
2019-05-28T06:27:26.238Z,85.92
2019-05-28T06:28:26.239Z,86.43
2019-05-28T06:29:26.216Z,87.49
2019-05-28T06:30:26.204Z,87.08
2019-05-28T06:31:26.193Z,87.94
2019-05-28T06:32:26.184Z,88.71
2019-05-28T06:33:26.172Z,88.35
2019-05-28T06:34:26.172Z,87.70
2019-05-28T06:35:26.167Z,87.73
2019-05-28T06:36:26.142Z,87.84
2019-05-28T06:37:26.129Z,88.76
2019-05-28T06:38:26.118Z,88.65
2019-05-28T06:39:26.107Z,88.96
2019-05-28T06:40:26.107Z,89.47
2019-05-28T06:41:26.086Z,88.65
2019-05-28T06:42:26.078Z,89.88
2019-05-28T06:43:26.066Z,89.78
2019-05-28T06:44:26.055Z,89.06
2019-05-28T06:45:26.046Z,90.80
2019-05-28T06:46:26.044Z,91.37
2019-05-28T06:47:26.025Z,90.92
2019-05-28T06:48:26.012Z,89.96
2019-05-28T06:49:26.003Z,88.73
2019-05-28T06:50:25.990Z,88.73
2019-05-28T06:51:25.979Z,88.73
2019-05-28T06:52:25.979Z,88.39
2019-05-28T06:53:25.957Z,87.77
2019-05-28T06:54:25.947Z,88.22
2019-05-28T06:55:25.936Z,88.43
2019-05-28T06:56:25.928Z,89.45
2019-05-28T06:57:25.916Z,88.63
2019-05-28T06:58:38.564Z,89.65
2019-05-28T06:59:26.890Z,89.45
2019-05-28T07:00:25.885Z,88.84
2019-05-28T07:01:28.465Z,87.45
2019-05-28T07:02:25.858Z,88.26
2019-05-28T07:03:25.846Z,88.57
2019-05-28T07:04:32.832Z,88.78
2019-05-28T07:05:26.827Z,87.45
2019-05-28T07:06:25.813Z,88.41
2019-05-28T07:07:25.809Z,89.49
2019-05-28T07:08:25.793Z,88.98
2019-05-28T07:09:25.783Z,88.67
2019-05-28T07:10:25.781Z,87.24
2019-05-28T07:11:25.760Z,86.43
2019-05-28T07:12:25.749Z,87.45
2019-05-28T07:13:25.739Z,88.06
2019-05-28T07:14:25.728Z,88.47
2019-05-28T07:15:25.717Z,88.06
2019-05-28T07:16:25.727Z,88.26
2019-05-28T07:17:25.696Z,87.65
2019-05-28T07:18:25.685Z,88.17
2019-05-28T07:19:25.676Z,88.47
2019-05-28T07:20:25.663Z,89.45
2019-05-28T07:21:25.658Z,88.53
2019-05-28T07:22:25.653Z,88.32
2019-05-28T07:23:25.633Z,87.61
2019-05-28T07:24:25.622Z,87.30
2019-05-28T07:25:25.611Z,87.41
2019-05-28T07:26:25.602Z,87.65
2019-05-28T07:27:25.589Z,88.43
2019-05-28T07:28:25.591Z,88.02
2019-05-28T07:29:25.573Z,88.32
2019-05-28T07:30:25.556Z,88.12
2019-05-28T07:31:25.545Z,88.59
2019-05-28T07:32:25.537Z,88.08
2019-05-28T07:33:25.527Z,86.55
2019-05-28T07:34:30.709Z,87.30
2019-05-28T07:35:26.501Z,88.18
2019-05-28T07:36:25.492Z,87.00
2019-05-28T07:37:25.483Z,87.00
2019-05-28T07:38:25.471Z,88.08
2019-05-28T07:39:25.461Z,87.98
2019-05-28T07:40:31.568Z,87.53
2019-05-28T07:41:26.436Z,86.96
2019-05-28T07:42:32.691Z,85.63
2019-05-28T07:43:26.413Z,85.74
2019-05-28T07:44:25.403Z,85.94
2019-05-28T07:45:25.397Z,86.61
2019-05-28T07:46:25.392Z,85.69
2019-05-28T07:47:25.371Z,86.92
2019-05-28T07:48:25.360Z,85.45
2019-05-28T07:49:25.351Z,84.33
2019-05-28T07:50:25.337Z,84.84
2019-05-28T07:51:25.335Z,84.12
2019-05-28T07:52:25.331Z,85.35
2019-05-28T07:53:38.629Z,85.31
2019-05-28T07:54:26.294Z,84.59
2019-05-28T07:55:25.286Z,84.23
2019-05-28T07:56:25.272Z,84.43
2019-05-28T07:57:25.266Z,83.65
2019-05-28T07:58:25.261Z,84.78
2019-05-28T07:59:25.240Z,85.75
2019-05-28T08:00:25.230Z,85.55
2019-05-28T08:01:25.225Z,84.64
2019-05-28T08:02:25.239Z,84.12
2019-05-28T08:03:25.198Z,84.33
2019-05-28T08:04:25.266Z,84.33
2019-05-28T08:05:25.175Z,83.72
2019-05-28T08:06:25.164Z,84.03
2019-05-28T08:07:25.156Z,84.12
2019-05-28T08:08:25.147Z,85.66
2019-05-28T08:09:25.132Z,84.64
2019-05-28T08:10:29.069Z,83.62
2019-05-28T08:11:25.114Z,83.51
2019-05-28T08:12:25.099Z,82.90
2019-05-28T08:13:39.574Z,83.82
2019-05-28T08:14:26.078Z,83.51
2019-05-28T08:15:25.092Z,83.92
2019-05-28T08:16:25.093Z,84.19
2019-05-28T08:17:25.045Z,83.68
2019-05-28T08:18:25.035Z,83.07
2019-05-28T08:19:25.026Z,83.23
2019-05-28T08:20:25.012Z,83.81
2019-05-28T08:21:25.005Z,79.84
2019-05-28T08:22:40.976Z,80.45
2019-05-28T08:23:25.980Z,80.49
2019-05-28T08:24:24.971Z,80.49
2019-05-28T08:25:45.544Z,81.71
2019-05-28T08:26:25.945Z,80.96
2019-05-28T08:27:24.952Z,80.55
2019-05-28T08:28:24.941Z,81.77
2019-05-28T08:29:24.915Z,81.06
2019-05-28T08:30:24.903Z,81.67
2019-05-28T08:31:24.893Z,81.87
2019-05-28T08:32:24.884Z,81.10
2019-05-28T08:33:24.871Z,81.51
2019-05-28T08:34:24.877Z,82.42
2019-05-28T08:35:24.849Z,82.93
2019-05-28T08:36:24.837Z,82.73
2019-05-28T08:37:24.827Z,83.13
2019-05-28T08:38:24.815Z,81.34
2019-05-28T08:39:24.806Z,82.32
2019-05-28T08:40:24.805Z,82.21
2019-05-28T08:41:24.783Z,82.01
2019-05-28T08:42:24.773Z,82.12
2019-05-28T08:43:24.759Z,81.65
2019-05-28T08:44:24.751Z,81.40
2019-05-28T08:45:24.740Z,82.12
2019-05-28T08:46:24.744Z,82.56
2019-05-28T08:47:24.720Z,83.07
2019-05-28T08:48:24.710Z,83.84
2019-05-28T08:49:24.698Z,83.54
2019-05-28T08:50:34.354Z,83.34
2019-05-28T08:51:25.689Z,83.23
2019-05-28T08:52:24.671Z,83.54
2019-05-28T08:53:24.662Z,83.74
2019-05-28T08:54:24.660Z,81.51
2019-05-28T08:55:24.637Z,82.32
2019-05-28T08:56:24.624Z,83.29
2019-05-28T08:57:24.629Z,83.70
2019-05-28T08:58:24.599Z,83.91
2019-05-28T08:59:24.609Z,84.21
2019-05-28T09:00:24.578Z,85.43
2019-05-28T09:01:24.568Z,85.33
2019-05-28T09:02:28.302Z,85.43
2019-05-28T09:03:24.563Z,85.23
2019-05-28T09:04:24.537Z,85.60
2019-05-28T09:05:26.650Z,86.04
2019-05-28T09:06:27.015Z,86.00
2019-05-28T09:07:24.502Z,86.61
2019-05-28T09:08:38.516Z,86.82
2019-05-28T09:09:25.501Z,86.00
2019-05-28T09:10:24.492Z,86.41
2019-05-28T09:11:24.458Z,86.96
2019-05-28T09:12:24.458Z,86.61
2019-05-28T09:13:24.445Z,86.86
2019-05-28T09:14:24.430Z,87.16
2019-05-28T09:15:24.429Z,87.47
2019-05-28T09:16:24.405Z,87.57
2019-05-28T09:17:24.394Z,87.47
2019-05-28T09:18:24.383Z,87.77
2019-05-28T09:19:24.383Z,88.28
2019-05-28T09:20:24.362Z,87.87
2019-05-28T09:21:24.362Z,87.87
2019-05-28T09:22:26.150Z,87.87
2019-05-28T09:23:24.329Z,87.98
2019-05-28T09:24:27.720Z,88.42
2019-05-28T09:25:24.315Z,89.44
2019-05-28T09:26:24.293Z,89.24
2019-05-28T09:27:24.296Z,88.42
2019-05-28T09:28:29.807Z,89.14
2019-05-28T09:29:25.261Z,88.22
2019-05-28T09:30:24.252Z,87.85
2019-05-28T09:31:24.238Z,89.22
2019-05-28T09:32:24.233Z,90.99
2019-05-28T09:33:24.227Z,91.40
2019-05-28T09:34:24.204Z,91.61
2019-05-28T09:35:24.195Z,92.26
2019-05-28T09:36:24.185Z,92.87
2019-05-28T09:37:24.172Z,91.49
2019-05-28T09:38:24.161Z,91.44
2019-05-28T09:39:24.161Z,92.00
2019-05-28T09:40:24.140Z,92.00
2019-05-28T09:41:24.129Z,92.20
2019-05-28T09:42:24.118Z,91.69
2019-05-28T09:43:24.106Z,92.00
2019-05-28T09:44:24.097Z,92.81
2019-05-28T09:45:24.096Z,92.71
2019-05-28T09:46:24.077Z,93.93
2019-05-28T09:47:24.062Z,93.43
2019-05-28T09:48:24.055Z,92.71
2019-05-28T09:49:24.041Z,93.07
2019-05-28T09:50:30.459Z,93.79
2019-05-28T09:51:25.030Z,92.57
2019-05-28T09:52:24.022Z,91.96
2019-05-28T09:53:23.999Z,92.87
2019-05-28T09:54:23.987Z,93.48
2019-05-28T09:55:23.982Z,94.76
2019-05-28T09:56:23.966Z,94.97
2019-05-28T09:57:23.969Z,93.64
2019-05-28T09:58:23.945Z,92.32
2019-05-28T09:59:23.932Z,91.36
2019-05-28T10:00:23.926Z,90.99
2019-05-28T10:01:23.915Z,89.77
2019-05-28T10:02:23.900Z,90.48
2019-05-28T10:03:23.902Z,90.89
2019-05-28T10:04:42.959Z,91.03
2019-05-28T10:05:24.865Z,91.20
2019-05-28T10:06:36.375Z,91.40
2019-05-28T10:07:24.848Z,89.67
2019-05-28T10:08:23.834Z,89.51
2019-05-28T10:09:23.832Z,89.77
2019-05-28T10:10:23.811Z,92.52
2019-05-28T10:11:23.801Z,92.27
2019-05-28T10:12:23.793Z,90.69
2019-05-28T10:13:37.934Z,90.89
2019-05-28T10:14:24.782Z,91.30
2019-05-28T10:15:23.756Z,92.58
2019-05-28T10:16:23.747Z,92.18
2019-05-28T10:17:23.755Z,92.07
2019-05-28T10:18:23.725Z,92.38
2019-05-28T10:19:23.712Z,91.72
2019-05-28T10:20:23.710Z,90.64
2019-05-28T10:21:23.690Z,89.32
2019-05-28T10:22:23.678Z,90.64
2019-05-28T10:23:23.667Z,91.42
2019-05-28T10:24:23.660Z,88.51
2019-05-28T10:25:23.646Z,89.53
2019-05-28T10:26:23.646Z,91.16
2019-05-28T10:27:23.625Z,91.05
2019-05-28T10:28:23.613Z,90.70
2019-05-28T10:29:23.605Z,89.69
2019-05-28T10:30:23.594Z,87.59
2019-05-28T10:31:23.579Z,86.98
2019-05-28T10:32:23.583Z,88.61
2019-05-28T10:33:23.557Z,90.03
2019-05-28T10:34:23.545Z,90.95
2019-05-28T10:35:23.535Z,91.05
2019-05-28T10:36:34.925Z,88.71
2019-05-28T10:37:24.523Z,90.44
2019-05-28T10:38:23.502Z,87.02
2019-05-28T10:39:23.492Z,88.96
2019-05-28T10:40:23.479Z,89.67
2019-05-28T10:41:23.470Z,89.06
2019-05-28T10:42:23.456Z,88.24
2019-05-28T10:43:23.459Z,88.45
2019-05-28T10:44:23.437Z,89.61
2019-05-28T10:45:23.424Z,90.48
2019-05-28T10:46:23.412Z,88.45
2019-05-28T10:47:23.410Z,88.59
2019-05-28T10:48:23.390Z,89.34
2019-05-28T10:49:23.407Z,89.75
2019-05-28T10:50:23.373Z,92.30
2019-05-28T10:51:23.357Z,89.65
2019-05-28T10:52:23.348Z,89.65
2019-05-28T10:53:23.338Z,89.39
2019-05-28T10:54:23.326Z,89.08
2019-05-28T10:55:23.327Z,90.92
2019-05-28T10:56:23.349Z,90.75
2019-05-28T10:57:23.293Z,91.83
2019-05-28T10:58:23.283Z,92.50
2019-05-28T10:59:23.271Z,92.76
2019-05-28T11:00:23.261Z,91.12
2019-05-28T11:01:23.261Z,91.28
2019-05-28T11:02:23.239Z,91.08
2019-05-28T11:03:23.228Z,91.08
2019-05-28T11:04:23.234Z,90.98
2019-05-28T11:05:23.208Z,90.57
2019-05-28T11:06:23.196Z,91.08
2019-05-28T11:07:23.196Z,90.77
2019-05-28T11:08:23.175Z,90.63
2019-05-28T11:09:23.164Z,91.03
2019-05-28T11:10:24.837Z,92.57
2019-05-28T11:11:23.143Z,92.72
2019-05-28T11:12:23.134Z,90.99
2019-05-28T11:13:23.131Z,90.99
2019-05-28T11:14:23.109Z,90.94
2019-05-28T11:15:24.128Z,90.53
2019-05-28T11:16:23.091Z,91.24
2019-05-28T11:17:23.076Z,90.22
2019-05-28T11:18:23.064Z,90.47
2019-05-28T11:19:23.064Z,90.36
2019-05-28T11:20:23.079Z,89.96
2019-05-28T11:21:23.034Z,89.25
2019-05-28T11:22:23.026Z,90.26
2019-05-28T11:23:23.010Z,91.08
2019-05-28T11:24:23.010Z,90.53
2019-05-28T11:25:23.001Z,90.83
2019-05-28T11:26:22.978Z,89.71
2019-05-28T11:27:24.159Z,90.16
2019-05-28T11:28:22.957Z,89.90
2019-05-28T11:29:22.945Z,91.08
2019-05-28T11:30:22.980Z,90.88
2019-05-28T11:31:22.937Z,91.14
2019-05-28T11:32:22.913Z,91.75
2019-05-28T11:33:22.904Z,91.20
2019-05-28T11:34:22.890Z,90.48
2019-05-28T11:35:22.916Z,88.85
2019-05-28T11:36:22.867Z,89.16
2019-05-28T11:37:22.868Z,89.16
2019-05-28T11:38:22.846Z,90.99
2019-05-28T11:39:22.835Z,88.65
2019-05-28T11:40:22.825Z,88.85
2019-05-28T11:41:40.569Z,89.77
2019-05-28T11:42:23.811Z,89.67
2019-05-28T11:43:22.790Z,90.79
2019-05-28T11:44:22.780Z,90.89
2019-05-28T11:45:22.769Z,90.24
2019-05-28T11:46:22.761Z,90.08
2019-05-28T11:47:22.765Z,89.01
2019-05-28T11:48:22.746Z,89.47
2019-05-28T11:49:22.725Z,89.06
2019-05-28T11:50:22.713Z,89.53
2019-05-28T11:51:22.703Z,87.84
2019-05-28T11:52:22.697Z,88.55
2019-05-28T11:53:22.682Z,89.77
2019-05-28T11:54:22.681Z,88.20
2019-05-28T11:55:22.676Z,89.36
2019-05-28T11:56:22.648Z,89.12
2019-05-28T11:57:22.638Z,88.24
2019-05-28T11:58:22.628Z,89.83
2019-05-28T11:59:22.617Z,86.37
2019-05-28T12:00:22.616Z,86.98
2019-05-28T12:01:33.938Z,87.29
2019-05-28T12:02:23.584Z,88.81
2019-05-28T12:03:22.572Z,89.48
2019-05-28T12:04:22.565Z,88.36
2019-05-28T12:05:22.552Z,88.42
2019-05-28T12:06:22.551Z,86.29
2019-05-28T12:07:26.204Z,84.01
2019-05-28T12:08:22.526Z,83.54
2019-05-28T12:09:22.509Z,84.45
2019-05-28T12:10:22.498Z,84.35
2019-05-28T12:11:22.489Z,83.95
2019-05-28T12:12:22.486Z,83.64
2019-05-28T12:13:22.464Z,82.93
2019-05-28T12:14:22.452Z,82.21
2019-05-28T12:15:22.441Z,83.84
2019-05-28T12:16:22.432Z,82.42
2019-05-28T12:17:40.593Z,83.03
2019-05-28T12:18:23.419Z,82.21
2019-05-28T12:19:22.399Z,80.38
2019-05-28T12:20:22.387Z,83.03
2019-05-28T12:21:22.376Z,83.64
2019-05-28T12:22:22.365Z,83.50
2019-05-28T12:23:22.357Z,82.54
2019-05-28T12:24:22.354Z,81.93
2019-05-28T12:25:22.331Z,81.19
2019-05-28T12:26:22.322Z,81.19
2019-05-28T12:27:22.310Z,80.78
2019-05-28T12:28:36.948Z,77.67
2019-05-28T12:29:23.298Z,79.60
2019-05-28T12:30:22.275Z,76.95
2019-05-28T12:31:22.264Z,78.31
2019-05-28T12:32:22.253Z,80.15
2019-05-28T12:33:22.279Z,80.24
2019-05-28T12:34:22.231Z,81.57
2019-05-28T12:35:29.155Z,80.62
2019-05-28T12:36:23.210Z,79.90
2019-05-28T12:37:22.207Z,79.90
2019-05-28T12:38:22.187Z,78.85
2019-05-28T12:39:22.350Z,77.77
2019-05-28T12:40:22.166Z,78.68
2019-05-28T12:41:22.177Z,79.16
2019-05-28T12:42:22.148Z,78.24
2019-05-28T12:43:22.132Z,79.72
2019-05-28T12:44:22.123Z,78.20
2019-05-28T12:45:34.992Z,78.51
2019-05-28T12:46:23.119Z,78.06
2019-05-28T12:47:22.090Z,76.37
2019-05-28T12:48:22.079Z,76.21
2019-05-28T12:49:22.068Z,76.21
2019-05-28T12:50:22.057Z,76.31
2019-05-28T12:51:22.046Z,77.22
2019-05-28T12:52:22.048Z,77.73